createdAt,value
2019-06-08T00:01:23.054Z,100711.07
2019-06-08T00:03:56.681Z,100707.55
2019-06-08T00:06:30.081Z,100714.58
2019-06-08T00:09:06.938Z,100717.06
2019-06-08T00:11:38.680Z,100706.72
2019-06-08T00:14:09.403Z,100707.84
2019-06-08T00:16:41.908Z,100714.09
2019-06-08T00:19:15.299Z,100720.34
2019-06-08T00:21:47.015Z,100710.32
2019-06-08T00:24:18.367Z,100714.09
2019-06-08T00:26:48.852Z,100717.03
2019-06-08T00:29:20.296Z,100720.67
2019-06-08T00:31:52.135Z,100724.17
2019-06-08T00:34:25.126Z,100733.48
2019-06-08T00:36:56.476Z,100732.17
2019-06-08T00:39:26.603Z,100735.34
2019-06-08T00:41:56.871Z,100734.36
2019-06-08T00:44:27.908Z,100743.92
2019-06-08T00:47:02.509Z,100745.95
2019-06-08T00:49:37.857Z,100743.77
2019-06-08T00:52:09.851Z,100746.24
2019-06-08T00:54:43.371Z,100747.63
2019-06-08T00:57:14.827Z,100755.81
2019-06-08T00:59:46.442Z,100761.30
2019-06-08T01:02:16.635Z,100764.55
2019-06-08T01:04:50.153Z,100769.64
2019-06-08T01:07:20.361Z,100766.75
2019-06-08T01:09:51.465Z,100778.19
2019-06-08T01:12:22.650Z,100775.84
2019-06-08T01:15:03.079Z,100777.91
2019-06-08T01:17:33.935Z,100777.00
2019-06-08T01:20:07.542Z,100787.83
2019-06-08T01:22:47.380Z,100787.33
2019-06-08T01:25:20.262Z,100784.12
2019-06-08T01:27:53.958Z,100788.33
2019-06-08T01:30:28.516Z,100785.33
2019-06-08T01:32:59.532Z,100796.50
2019-06-08T01:35:32.095Z,100782.21
2019-06-08T01:38:03.725Z,100777.83
2019-06-08T01:40:36.217Z,100790.16
2019-06-08T01:43:11.093Z,100782.48
2019-06-08T01:45:41.430Z,100789.06
2019-06-08T01:48:20.161Z,100788.89
2019-06-08T01:50:46.286Z,100791.30
2019-06-08T01:53:16.572Z,100785.42
2019-06-08T01:55:46.876Z,100791.35
2019-06-08T01:58:18.833Z,100793.23
2019-06-08T02:00:50.334Z,100804.07
2019-06-08T02:03:21.080Z,100802.28
2019-06-08T02:05:53.807Z,100801.39
2019-06-08T02:08:30.654Z,100813.94
2019-06-08T02:11:03.069Z,100802.26
2019-06-08T02:13:35.974Z,100804.20
2019-06-08T02:16:11.108Z,100815.79
2019-06-08T02:18:50.757Z,100822.22
2019-06-08T02:21:18.117Z,100816.84
2019-06-08T02:23:48.420Z,100820.66
2019-06-08T02:26:22.271Z,100834.69
2019-06-08T02:28:53.314Z,100834.08
2019-06-08T02:31:34.834Z,100827.70
2019-06-08T02:34:05.320Z,100831.91
2019-06-08T02:36:38.340Z,100837.97
2019-06-08T02:39:09.607Z,100839.58
2019-06-08T02:41:42.050Z,100849.50
2019-06-08T02:44:14.583Z,100857.02
2019-06-08T02:46:46.046Z,100851.98
2019-06-08T02:49:17.200Z,100862.48
2019-06-08T02:51:52.487Z,100863.32
2019-06-08T02:54:23.993Z,100877.16
2019-06-08T02:56:56.679Z,100878.66
2019-06-08T02:59:31.364Z,100879.02
2019-06-08T03:02:04.723Z,100880.87
2019-06-08T03:04:38.821Z,100887.09
2019-06-08T03:07:11.215Z,100891.11
2019-06-08T03:09:44.632Z,100907.16
2019-06-08T03:12:19.639Z,100910.73
2019-06-08T03:14:53.538Z,100904.70
2019-06-08T03:17:35.577Z,100921.41
2019-06-08T03:20:07.607Z,100919.38
2019-06-08T03:22:41.880Z,100922.16
2019-06-08T03:25:11.360Z,100927.25
2019-06-08T03:27:43.728Z,100927.25
2019-06-08T03:30:18.578Z,100924.27
2019-06-08T03:32:55.741Z,100924.47
2019-06-08T03:35:24.126Z,100924.47
2019-06-08T03:37:55.793Z,100930.94
2019-06-08T03:40:26.025Z,100923.07
2019-06-08T03:43:00.306Z,100925.86
2019-06-08T03:45:34.193Z,100927.56
2019-06-08T03:48:04.701Z,100925.61
2019-06-08T03:50:35.466Z,100925.61
2019-06-08T03:53:12.036Z,100936.12
2019-06-08T03:55:45.441Z,100941.70
2019-06-08T03:58:15.487Z,100953.39
2019-06-08T04:00:47.069Z,100952.14
2019-06-08T04:03:22.117Z,100952.22
2019-06-08T04:05:55.695Z,100964.03
2019-06-08T04:08:27.488Z,100964.12
2019-06-08T04:11:02.791Z,100960.29
2019-06-08T04:13:34.345Z,100965.55
2019-06-08T04:16:06.595Z,100966.78
2019-06-08T04:18:38.077Z,100967.97
2019-06-08T04:21:11.152Z,100962.86
2019-06-08T04:23:45.344Z,100962.86
2019-06-08T04:26:18.584Z,100979.78
2019-06-08T04:28:55.092Z,100979.78
2019-06-08T04:31:27.247Z,100980.91
2019-06-08T04:33:59.683Z,100985.71
2019-06-08T04:36:29.927Z,100991.58
2019-06-08T04:39:07.732Z,100990.34
2019-06-08T04:41:40.588Z,100979.62
2019-06-08T04:44:12.827Z,100983.17
2019-06-08T04:46:54.410Z,100983.17
2019-06-08T04:49:26.804Z,100994.01
2019-06-08T04:52:02.963Z,100999.72
2019-06-08T04:54:40.809Z,101021.59
2019-06-08T04:57:16.098Z,101021.59
2019-06-08T04:59:52.297Z,101031.27
2019-06-08T05:02:26.078Z,101029.47
2019-06-08T05:05:02.032Z,101033.15
2019-06-08T05:07:39.334Z,101041.16
2019-06-08T05:10:14.461Z,101041.31
2019-06-08T05:12:51.140Z,101046.72
2019-06-08T05:15:26.254Z,101049.16
2019-06-08T05:18:00.568Z,101050.14
2019-06-08T05:20:38.933Z,101050.37
2019-06-08T05:23:07.624Z,101045.47
2019-06-08T05:25:39.376Z,101052.77
2019-06-08T05:28:12.549Z,101068.31
2019-06-08T05:30:45.264Z,101079.99
2019-06-08T05:33:19.262Z,101079.99
2019-06-08T05:35:52.944Z,101089.27
2019-06-08T05:38:23.986Z,101078.17
2019-06-08T05:40:55.746Z,101075.45
2019-06-08T05:43:27.185Z,101076.83
2019-06-08T05:46:00.071Z,101081.20
2019-06-08T05:48:31.864Z,101085.40
2019-06-08T05:51:09.933Z,101088.17
2019-06-08T05:53:43.819Z,101090.87
2019-06-08T05:56:14.890Z,101091.49
2019-06-08T05:58:46.003Z,101097.45
2019-06-08T06:01:17.217Z,101094.09
2019-06-08T06:03:48.782Z,101105.14
2019-06-08T06:06:21.109Z,101095.19
2019-06-08T06:08:51.963Z,101105.39
2019-06-08T06:11:22.224Z,101119.27
2019-06-08T06:13:52.694Z,101121.67
2019-06-08T06:16:25.005Z,101121.67
2019-06-08T06:18:59.529Z,101130.27
2019-06-08T06:21:31.745Z,101130.77
2019-06-08T06:24:07.177Z,101143.73
2019-06-08T06:26:41.299Z,101147.02
2019-06-08T06:29:15.790Z,101152.78
2019-06-08T06:31:51.934Z,101153.95
2019-06-08T06:34:25.277Z,101156.12
2019-06-08T06:37:01.085Z,101148.71
2019-06-08T06:39:33.683Z,101150.70
2019-06-08T06:42:07.928Z,101148.41
2019-06-08T06:44:38.738Z,101167.89
2019-06-08T06:47:13.838Z,101167.89
2019-06-08T06:49:44.597Z,101155.33
2019-06-08T06:52:17.768Z,101156.37
2019-06-08T06:54:53.157Z,101166.17
2019-06-08T06:57:23.942Z,101169.70
2019-06-08T06:59:56.063Z,101173.44
2019-06-08T07:02:32.695Z,101180.27
2019-06-08T07:05:07.438Z,101180.39
2019-06-08T07:08:01.398Z,101180.39
2019-06-08T07:10:38.225Z,101187.91
2019-06-08T07:13:12.705Z,101197.92
2019-06-08T07:16:17.203Z,101199.55
2019-06-08T07:18:36.089Z,101203.13
2019-06-08T07:21:11.963Z,101212.84
2019-06-08T07:23:46.304Z,101203.46
2019-06-08T07:26:17.692Z,101213.31
2019-06-08T07:28:52.430Z,101216.78
2019-06-08T07:31:23.204Z,101214.62
2019-06-08T07:33:57.452Z,101214.69
2019-06-08T07:36:28.029Z,101213.02
2019-06-08T07:38:59.651Z,101213.52
2019-06-08T07:41:32.716Z,101220.34
2019-06-08T07:44:03.741Z,101236.22
2019-06-08T07:46:36.464Z,101219.33
2019-06-08T07:49:06.911Z,101219.47
2019-06-08T07:51:37.925Z,101231.30
2019-06-08T07:54:09.351Z,101224.66
2019-06-08T07:56:41.189Z,101228.67
2019-06-08T07:59:12.786Z,101242.98
2019-06-08T08:01:51.905Z,101248.05
2019-06-08T08:04:22.690Z,101239.16
2019-06-08T08:07:08.772Z,101240.23
2019-06-08T08:09:59.207Z,101245.36
2019-06-08T08:12:34.215Z,101247.99
2019-06-08T08:15:06.784Z,101255.00
2019-06-08T08:17:37.817Z,101254.16
2019-06-08T08:20:10.570Z,101263.92
2019-06-08T08:22:42.608Z,101256.98
2019-06-08T08:25:12.989Z,101254.80
2019-06-08T08:27:52.387Z,101253.68
2019-06-08T08:30:23.647Z,101268.59
2019-06-08T08:32:57.105Z,101263.55
2019-06-08T08:35:28.023Z,101250.91
2019-06-08T08:38:03.022Z,101264.83
2019-06-08T08:40:31.709Z,101303.12
2019-06-08T08:43:03.883Z,101266.73
2019-06-08T08:45:37.306Z,101273.09
2019-06-08T08:48:24.444Z,101283.39
2019-06-08T08:50:48.340Z,101279.01
2019-06-08T08:53:21.925Z,101285.47
2019-06-08T08:55:52.386Z,101292.80
2019-06-08T08:58:24.102Z,101290.93
2019-06-08T09:00:57.560Z,101294.00
2019-06-08T09:03:33.457Z,101298.55
2019-06-08T09:06:03.942Z,101305.98
2019-06-08T09:08:37.577Z,101311.41
2019-06-08T09:11:11.157Z,101317.03
2019-06-08T09:13:45.331Z,101316.67
2019-06-08T09:16:18.443Z,101310.70
2019-06-08T09:18:53.924Z,101316.79
2019-06-08T09:21:27.951Z,101315.27
2019-06-08T09:24:01.979Z,101333.88
2019-06-08T09:26:38.264Z,101325.23
2019-06-08T09:29:13.140Z,101320.59
2019-06-08T09:31:45.407Z,101323.44
2019-06-08T09:34:19.283Z,101333.62
2019-06-08T09:36:49.953Z,101340.34
2019-06-08T09:39:24.052Z,101346.17
2019-06-08T09:42:00.455Z,101350.55
2019-06-08T09:44:34.812Z,101352.66
2019-06-08T09:47:12.385Z,101351.95
2019-06-08T09:49:48.140Z,101344.53
2019-06-08T09:52:21.655Z,101348.59
2019-06-08T09:54:56.939Z,101336.23
2019-06-08T09:57:28.724Z,101338.19
2019-06-08T10:00:04.353Z,101352.52
2019-06-08T10:02:33.602Z,101362.41
2019-06-08T10:05:06.332Z,101350.61
2019-06-08T10:07:39.236Z,101370.01
2019-06-08T10:10:10.357Z,101363.63
2019-06-08T10:12:44.522Z,101360.66
2019-06-08T10:15:18.007Z,101365.83
2019-06-08T10:17:52.189Z,101370.11
2019-06-08T10:20:28.810Z,101394.92
2019-06-08T10:23:01.160Z,101374.41
2019-06-08T10:25:34.005Z,101376.87
2019-06-08T10:28:10.122Z,101366.38
2019-06-08T10:30:40.194Z,101390.28
2019-06-08T10:33:10.512Z,101384.32
2019-06-08T10:35:41.385Z,101381.90
2019-06-08T10:38:12.183Z,101380.70
2019-06-08T10:41:10.801Z,101405.29
2019-06-08T10:43:38.523Z,101388.95
2019-06-08T10:46:16.683Z,101396.98
2019-06-08T10:48:42.203Z,101401.24
2019-06-08T10:51:14.187Z,101398.26
2019-06-08T10:53:52.094Z,101401.83
2019-06-08T10:56:25.263Z,101395.28
2019-06-08T10:58:58.054Z,101411.02
2019-06-08T11:01:30.708Z,101404.64
2019-06-08T11:04:01.952Z,101396.88
2019-06-08T11:06:39.895Z,101403.45
2019-06-08T11:09:13.205Z,101413.06
2019-06-08T11:11:40.511Z,101432.56
2019-06-08T11:14:13.358Z,101407.73
2019-06-08T11:16:47.597Z,101411.34
2019-06-08T11:19:19.150Z,101432.33
2019-06-08T11:21:49.841Z,101420.18
2019-06-08T11:24:24.495Z,101430.53
2019-06-08T11:26:54.470Z,101435.66
2019-06-08T11:29:30.778Z,101430.14
2019-06-08T11:32:06.547Z,101441.34
2019-06-08T11:34:40.791Z,101420.30
2019-06-08T11:37:17.881Z,101428.27
2019-06-08T11:39:49.175Z,101436.45
2019-06-08T11:42:19.347Z,101446.02
2019-06-08T11:44:58.721Z,101440.69
2019-06-08T11:47:33.652Z,101456.87
2019-06-08T11:50:07.285Z,101455.86
2019-06-08T11:52:40.509Z,101453.63
2019-06-08T11:55:13.171Z,101460.27
2019-06-08T11:57:48.846Z,101453.98
2019-06-08T12:00:44.207Z,101461.98
2019-06-08T12:03:16.061Z,101462.97
2019-06-08T12:05:47.839Z,101464.22
2019-06-08T12:08:20.898Z,101476.31
2019-06-08T12:10:51.377Z,101462.58
2019-06-08T12:13:22.363Z,101472.37
2019-06-08T12:16:22.053Z,101474.30
2019-06-08T12:18:53.000Z,101471.32
2019-06-08T12:21:23.259Z,101482.25
2019-06-08T12:23:53.857Z,101481.70
2019-06-08T12:26:26.106Z,101488.19
2019-06-08T12:29:01.206Z,101479.17
2019-06-08T12:31:30.181Z,101484.63
2019-06-08T12:34:00.663Z,101479.05
2019-06-08T12:36:33.838Z,101484.66
2019-06-08T12:39:10.069Z,101477.67
2019-06-08T12:41:41.174Z,101473.92
2019-06-08T12:44:14.682Z,101479.48
2019-06-08T12:46:48.351Z,101489.80
2019-06-08T12:49:18.798Z,101487.80
2019-06-08T12:51:51.704Z,101471.56
2019-06-08T12:54:23.511Z,101472.45
2019-06-08T12:56:57.971Z,101471.61
2019-06-08T12:59:34.485Z,101477.11
2019-06-08T13:02:10.605Z,101472.48
2019-06-08T13:04:40.486Z,101473.44
2019-06-08T13:07:14.798Z,101480.05
2019-06-08T13:09:48.171Z,101481.05
2019-06-08T13:12:20.371Z,101468.88
2019-06-08T13:14:52.165Z,101467.83
2019-06-08T13:17:22.805Z,101473.53
2019-06-08T13:19:53.421Z,101480.58
2019-06-08T13:22:29.053Z,101479.80
2019-06-08T13:25:15.099Z,101478.27
2019-06-08T13:27:32.709Z,101492.33
2019-06-08T13:30:07.650Z,101482.89
2019-06-08T13:32:40.747Z,101483.28
2019-06-08T13:35:12.199Z,101493.48
2019-06-08T13:37:42.603Z,101496.77
2019-06-08T13:40:15.304Z,101501.91
2019-06-08T13:42:45.462Z,101495.94
2019-06-08T13:45:18.826Z,101502.48
2019-06-08T13:47:50.497Z,101498.70
2019-06-08T13:50:22.627Z,101492.01
2019-06-08T13:52:55.143Z,101515.77
2019-06-08T13:55:42.588Z,101510.98
2019-06-08T13:57:58.122Z,101508.08
2019-06-08T14:00:38.339Z,101517.19
2019-06-08T14:03:08.980Z,101509.30
2019-06-08T14:05:39.310Z,101511.25
2019-06-08T14:08:10.935Z,101511.56
2019-06-08T14:10:44.714Z,101520.98
2019-06-08T14:13:15.220Z,101538.92
2019-06-08T14:15:45.467Z,101532.27
2019-06-08T14:18:22.616Z,101514.53
2019-06-08T14:20:49.070Z,101516.88
2019-06-08T14:23:22.794Z,101510.99
2019-06-08T14:25:56.699Z,101503.39
2019-06-08T14:28:26.078Z,101498.39
2019-06-08T14:30:59.358Z,101496.28
2019-06-08T14:33:34.638Z,101498.58
2019-06-08T14:36:07.988Z,101505.50
2019-06-08T14:38:41.696Z,101490.52
2019-06-08T14:41:10.987Z,101495.45
2019-06-08T14:43:41.316Z,101504.50
2019-06-08T14:46:11.541Z,101521.16
2019-06-08T14:48:45.209Z,101522.08
2019-06-08T14:51:16.694Z,101533.39
2019-06-08T14:53:48.635Z,101521.97
2019-06-08T14:56:20.144Z,101526.83
2019-06-08T14:58:52.588Z,101523.08
2019-06-08T15:01:26.339Z,101520.09
2019-06-08T15:03:58.656Z,101525.47
2019-06-08T15:06:33.961Z,101526.25
2019-06-08T15:09:00.877Z,101520.22
2019-06-08T15:11:35.257Z,101524.02
2019-06-08T15:14:08.517Z,101544.06
2019-06-08T15:16:38.588Z,101536.97
2019-06-08T15:19:12.098Z,101538.09
2019-06-08T15:21:43.587Z,101536.92
2019-06-08T15:24:18.575Z,101544.41
2019-06-08T15:26:50.587Z,101539.12
2019-06-08T15:29:24.952Z,101542.22
2019-06-08T15:31:58.490Z,101533.05
2019-06-08T15:34:32.936Z,101535.95
2019-06-08T15:37:05.287Z,101546.70
2019-06-08T15:39:35.511Z,101540.98
2019-06-08T15:42:10.267Z,101545.84
2019-06-08T15:44:42.138Z,101533.42
2019-06-08T15:47:14.680Z,101541.00
2019-06-08T15:49:50.222Z,101534.38
2019-06-08T15:52:22.387Z,101538.80
2019-06-08T15:54:52.622Z,101536.01
2019-06-08T15:57:24.619Z,101549.22
2019-06-08T15:59:54.929Z,101540.63
2019-06-08T16:02:29.423Z,101541.88
2019-06-08T16:05:02.408Z,101543.48
2019-06-08T16:07:35.611Z,101543.27
2019-06-08T16:10:08.202Z,101545.68
2019-06-08T16:12:38.855Z,101547.17
2019-06-08T16:15:14.807Z,101546.73
2019-06-08T16:17:48.005Z,101548.37
2019-06-08T16:20:21.296Z,101556.91
2019-06-08T16:22:52.069Z,101564.00
2019-06-08T16:25:22.636Z,101575.90
2019-06-08T16:27:55.645Z,101582.59
2019-06-08T16:30:28.891Z,101572.43
2019-06-08T16:33:00.931Z,101582.23
2019-06-08T16:35:31.535Z,101572.70
2019-06-08T16:38:04.089Z,101569.98
2019-06-08T16:40:34.420Z,101566.40
2019-06-08T16:43:06.625Z,101569.17
2019-06-08T16:45:39.434Z,101570.15
2019-06-08T16:48:11.022Z,101570.52
2019-06-08T16:50:41.965Z,101569.35
2019-06-08T16:53:12.894Z,101577.64
2019-06-08T16:55:45.434Z,101575.70
2019-06-08T16:58:16.020Z,101577.13
2019-06-08T17:00:49.106Z,101586.78
2019-06-08T17:03:21.366Z,101583.03
2019-06-08T17:05:53.327Z,101592.44
2019-06-08T17:08:23.567Z,101595.27
2019-06-08T17:10:54.099Z,101606.95
2019-06-08T17:13:26.244Z,101610.59
2019-06-08T17:15:58.539Z,101611.40
2019-06-08T17:18:40.361Z,101611.69
2019-06-08T17:21:12.606Z,101633.72
2019-06-08T17:23:43.319Z,101661.91
2019-06-08T17:26:14.179Z,101697.29
2019-06-08T17:28:44.653Z,101697.83
2019-06-08T17:31:17.066Z,101675.25
2019-06-08T17:33:48.675Z,101673.16
2019-06-08T17:36:20.244Z,101656.65
2019-06-08T17:38:50.462Z,101666.57
2019-06-08T17:41:21.051Z,101659.45
2019-06-08T17:43:53.164Z,101659.00
2019-06-08T17:46:24.655Z,101661.77
2019-06-08T17:48:58.011Z,101662.04
2019-06-08T17:51:30.992Z,101662.75
2019-06-08T17:54:04.582Z,101666.38
2019-06-08T17:56:37.147Z,101671.27
2019-06-08T17:59:07.979Z,101672.55
2019-06-08T18:01:39.753Z,101672.47
2019-06-08T18:04:14.180Z,101670.16
2019-06-08T18:06:47.429Z,101675.14
2019-06-08T18:09:18.944Z,101678.06
2019-06-08T18:11:50.336Z,101676.80
2019-06-08T18:14:23.966Z,101683.31
2019-06-08T18:16:54.196Z,101676.40
2019-06-08T18:19:29.365Z,101680.47
2019-06-08T18:22:05.765Z,101685.09
2019-06-08T18:24:39.224Z,101685.42
2019-06-08T18:27:12.139Z,101689.64
2019-06-08T18:29:44.419Z,101696.01
2019-06-08T18:32:19.123Z,101689.33
2019-06-08T18:34:50.187Z,101689.72
2019-06-08T18:37:20.496Z,101697.56
2019-06-08T18:39:52.435Z,101694.02
2019-06-08T18:42:28.497Z,101693.50
2019-06-08T18:44:59.222Z,101700.20
2019-06-08T18:47:31.279Z,101705.81
2019-06-08T18:50:03.574Z,101704.41
2019-06-08T18:52:35.327Z,101706.06
2019-06-08T18:55:08.313Z,101710.54
2019-06-08T18:57:41.024Z,101714.85
2019-06-08T19:00:12.948Z,101707.04
2019-06-08T19:02:49.049Z,101710.50
2019-06-08T19:05:21.209Z,101705.70
2019-06-08T19:07:53.345Z,101712.48
2019-06-08T19:10:34.602Z,101714.61
2019-06-08T19:13:07.947Z,101704.91
2019-06-08T19:15:43.771Z,101716.36
2019-06-08T19:18:11.908Z,101712.08
2019-06-08T19:20:44.873Z,101715.42
2019-06-08T19:23:14.555Z,101711.35
2019-06-08T19:25:49.396Z,101726.59
2019-06-08T19:28:35.138Z,101734.09
2019-06-08T19:30:52.214Z,101734.27
2019-06-08T19:33:23.762Z,101736.50
2019-06-08T19:35:59.092Z,101739.41
2019-06-08T19:38:54.494Z,101746.48
2019-06-08T19:41:21.465Z,101748.70
2019-06-08T19:43:54.068Z,101757.11
2019-06-08T19:46:24.247Z,101753.49
2019-06-08T19:48:55.636Z,101754.50
2019-06-08T19:51:27.828Z,101768.41
2019-06-08T19:53:58.667Z,101763.03
2019-06-08T19:56:29.881Z,101776.08
2019-06-08T19:59:04.671Z,101770.41
2019-06-08T20:01:32.463Z,101766.95
2019-06-08T20:04:03.087Z,101772.63
2019-06-08T20:06:37.113Z,101771.45
2019-06-08T20:09:09.473Z,101775.20
2019-06-08T20:11:44.156Z,101772.77
2019-06-08T20:14:12.572Z,101768.34
2019-06-08T20:16:44.712Z,101771.37
2019-06-08T20:19:17.569Z,101782.96
2019-06-08T20:21:51.310Z,101782.06
2019-06-08T20:24:20.015Z,101777.47
2019-06-08T20:26:53.412Z,101781.50
2019-06-08T20:29:24.546Z,101793.77
2019-06-08T20:31:57.522Z,101792.63
2019-06-08T20:34:27.267Z,101798.85
2019-06-08T20:37:01.432Z,101802.09
2019-06-08T20:39:31.806Z,101805.55
2019-06-08T20:42:02.112Z,101796.41
2019-06-08T20:44:32.435Z,101797.09
2019-06-08T20:47:02.779Z,101802.58
2019-06-08T20:49:33.905Z,101804.73
2019-06-08T20:52:04.742Z,101811.91
2019-06-08T20:54:37.321Z,101808.09
2019-06-08T20:57:09.487Z,101811.83
2019-06-08T20:59:40.234Z,101808.89
2019-06-08T21:02:10.651Z,101811.76
2019-06-08T21:04:40.907Z,101810.61
2019-06-08T21:07:11.223Z,101817.94
2019-06-08T21:09:42.140Z,101817.63
2019-06-08T21:12:12.486Z,101818.95
2019-06-08T21:14:42.777Z,101816.18
2019-06-08T21:17:14.034Z,101824.86
2019-06-08T21:19:46.717Z,101829.42
2019-06-08T21:22:18.355Z,101824.72
2019-06-08T21:24:59.742Z,101828.20
2019-06-08T21:27:27.714Z,101827.31
2019-06-08T21:30:06.859Z,101826.63
2019-06-08T21:32:30.558Z,101828.02
2019-06-08T21:35:00.780Z,101829.19
2019-06-08T21:37:32.699Z,101832.43
2019-06-08T21:40:04.312Z,101829.35
2019-06-08T21:42:36.976Z,101826.46
2019-06-08T21:45:09.517Z,101833.56
2019-06-08T21:47:39.049Z,101844.38
2019-06-08T21:50:09.808Z,101838.93
2019-06-08T21:52:39.992Z,101841.28
2019-06-08T21:55:10.231Z,101835.97
2019-06-08T21:57:40.513Z,101841.20
2019-06-08T22:00:34.840Z,101847.30
2019-06-08T22:02:47.932Z,101843.18
2019-06-08T22:05:18.351Z,101843.72
2019-06-08T22:07:50.116Z,101845.62
2019-06-08T22:10:20.504Z,101842.25
2019-06-08T22:12:52.101Z,101839.31
2019-06-08T22:15:22.620Z,101836.62
2019-06-08T22:17:53.137Z,101836.62
2019-06-08T22:20:23.911Z,101847.91
2019-06-08T22:22:55.101Z,101844.62
2019-06-08T22:25:27.714Z,101846.47
2019-06-08T22:27:58.427Z,101842.88
2019-06-08T22:30:39.306Z,101848.12
2019-06-08T22:33:03.963Z,101846.77
2019-06-08T22:35:37.339Z,101839.72
2019-06-08T22:38:08.595Z,101842.87
2019-06-08T22:40:38.912Z,101855.33
2019-06-08T22:43:09.387Z,101851.42
2019-06-08T22:45:40.568Z,101860.48
2019-06-08T22:48:10.872Z,101851.25
2019-06-08T22:50:41.173Z,101851.25
2019-06-08T22:53:11.424Z,101848.67
2019-06-08T22:55:44.248Z,101854.61
2019-06-08T22:58:20.999Z,101853.13
2019-06-08T23:00:56.018Z,101853.30
2019-06-08T23:03:42.553Z,101857.27
2019-06-08T23:06:14.045Z,101853.39
2019-06-08T23:08:44.244Z,101855.91
2019-06-08T23:11:14.446Z,101855.08
2019-06-08T23:13:47.048Z,101852.30
2019-06-08T23:16:18.164Z,101852.05
2019-06-08T23:18:49.085Z,101853.78
2019-06-08T23:21:20.278Z,101862.98
2019-06-08T23:23:50.525Z,101857.37
2019-06-08T23:26:20.884Z,101859.99
2019-06-08T23:28:53.790Z,101854.25
2019-06-08T23:31:25.656Z,101854.91
2019-06-08T23:33:57.195Z,101854.05
2019-06-08T23:36:47.112Z,101849.62
2019-06-08T23:39:05.109Z,101849.62
2019-06-08T23:41:37.720Z,101849.33
2019-06-08T23:44:08.104Z,101853.08
2019-06-08T23:46:38.365Z,101844.55
2019-06-08T23:49:09.078Z,101841.29
2019-06-08T23:51:40.430Z,101851.48
2019-06-08T23:54:12.469Z,101853.98
2019-06-08T23:56:42.951Z,101853.98
2019-06-08T23:59:13.536Z,101853.83
